createdAt,value
2023-04-23T00:02:02.811Z,100352.66
2023-04-23T00:06:08.013Z,100361.31
2023-04-23T00:10:10.667Z,100358.72
2023-04-23T00:14:13.047Z,100355.19
2023-04-23T00:18:17.101Z,100352.56
2023-04-23T00:22:20.451Z,100354.69
2023-04-23T00:26:22.466Z,100347.94
2023-04-23T00:30:24.666Z,100346.28
2023-04-23T00:34:26.767Z,100341.28
2023-04-23T00:38:28.802Z,100334.84
2023-04-23T00:42:31.656Z,100340.94
2023-04-23T00:46:33.872Z,100343.97
2023-04-23T00:50:35.989Z,100332.19
2023-04-23T00:54:38.064Z,100338.25
2023-04-23T00:58:41.276Z,100339.16
2023-04-23T01:02:44.418Z,100332.75
2023-04-23T01:06:49.973Z,100345.59
2023-04-23T01:10:53.277Z,100358.59
2023-04-23T01:14:55.856Z,100364.38
2023-04-23T01:18:58.477Z,100350.19
2023-04-23T01:23:00.620Z,100344.69
2023-04-23T01:27:02.758Z,100351.75
2023-04-23T01:31:05.465Z,100352.03
2023-04-23T01:35:08.227Z,100344.25
2023-04-23T01:39:10.482Z,100336.63
2023-04-23T01:43:12.515Z,100346.81
2023-04-23T01:47:16.505Z,100327.31
2023-04-23T01:51:19.102Z,100327.81
2023-04-23T01:55:21.512Z,100340.22
2023-04-23T01:59:23.600Z,100325.59
2023-04-23T02:03:25.846Z,100323.41
2023-04-23T02:07:28.088Z,100317.13
2023-04-23T02:11:30.333Z,100315.34
2023-04-23T02:15:32.597Z,100321.72
2023-04-23T02:19:35.849Z,100319.06
2023-04-23T02:23:38.710Z,100320.94
2023-04-23T02:27:41.199Z,100320.94
2023-04-23T02:31:43.228Z,100321.06
2023-04-23T02:35:45.349Z,100311.97
2023-04-23T02:39:47.376Z,100305.63
2023-04-23T02:43:49.442Z,100293.84
2023-04-23T02:47:53.377Z,100301.94
2023-04-23T02:51:55.685Z,100301.31
2023-04-23T02:55:57.808Z,100301.34
2023-04-23T02:59:59.874Z,100297.34
2023-04-23T03:04:09.544Z,100295.66
2023-04-23T03:08:11.771Z,100300.81
2023-04-23T03:12:13.914Z,100290.44
2023-04-23T03:16:16.747Z,100291.38
2023-04-23T03:20:19.574Z,100289.94
2023-04-23T03:24:22.011Z,100284.06
2023-04-23T03:28:24.188Z,100287.66
2023-04-23T03:32:26.228Z,100291.69
2023-04-23T03:36:28.408Z,100293.84
2023-04-23T03:40:31.057Z,100290.25
2023-04-23T03:44:37.104Z,100283.81
2023-04-23T03:48:39.296Z,100291.44
2023-04-23T03:52:47.042Z,100298.53
2023-04-23T03:56:59.697Z,100299.84
2023-04-23T04:01:04.237Z,100304.25
2023-04-23T04:05:07.409Z,100320.00
2023-04-23T04:09:09.602Z,100327.88
2023-04-23T04:13:11.693Z,100342.84
2023-04-23T04:17:15.941Z,100351.47
2023-04-23T04:21:19.070Z,100359.94
2023-04-23T04:25:22.296Z,100368.22
2023-04-23T04:29:24.428Z,100370.47
2023-04-23T04:33:26.775Z,100379.88
2023-04-23T04:37:28.724Z,100390.09
2023-04-23T04:41:30.921Z,100392.56
2023-04-23T04:45:33.087Z,100403.16
2023-04-23T04:49:36.030Z,100402.41
2023-04-23T04:53:38.191Z,100401.19
2023-04-23T04:57:40.355Z,100405.69
2023-04-23T05:01:43.229Z,100413.38
2023-04-23T05:05:45.799Z,100405.91
2023-04-23T05:09:47.821Z,100408.69
2023-04-23T05:13:49.908Z,100406.41
2023-04-23T05:17:53.762Z,100403.41
2023-04-23T05:21:56.605Z,100414.31
2023-04-23T05:25:58.883Z,100409.69
2023-04-23T05:30:06.126Z,100409.47
2023-04-23T05:34:08.230Z,100411.16
2023-04-23T05:38:10.497Z,100410.38
2023-04-23T05:42:13.235Z,100409.47
2023-04-23T05:46:15.253Z,100417.59
2023-04-23T05:50:18.247Z,100414.75
2023-04-23T05:54:20.304Z,100417.75
2023-04-23T05:58:22.732Z,100412.44
2023-04-23T06:02:25.478Z,100400.19
2023-04-23T06:06:28.034Z,100406.63
2023-04-23T06:10:30.268Z,100410.03
2023-04-23T06:14:32.415Z,100400.84
2023-04-23T06:18:35.465Z,100407.31
2023-04-23T06:22:37.567Z,100397.44
2023-04-23T06:26:39.572Z,100401.56
2023-04-23T06:30:48.000Z,100395.63
2023-04-23T06:35:00.310Z,100403.88
2023-04-23T06:39:04.169Z,100400.13
2023-04-23T06:43:07.909Z,100397.69
2023-04-23T06:47:28.290Z,100392.00
2023-04-23T06:51:32.028Z,100392.25
2023-04-23T06:55:34.263Z,100388.81
2023-04-23T06:59:36.307Z,100383.75
2023-04-23T07:03:38.553Z,100378.56
2023-04-23T07:07:43.471Z,100385.13
2023-04-23T07:11:45.689Z,100381.16
2023-04-23T07:15:49.061Z,100384.56
2023-04-23T07:19:51.310Z,100379.72
2023-04-23T07:23:54.393Z,100386.41
2023-04-23T07:27:56.851Z,100382.50
2023-04-23T07:31:59.173Z,100381.69
2023-04-23T07:36:01.643Z,100374.09
2023-04-23T07:40:05.527Z,100373.56
2023-04-23T07:44:08.607Z,100360.94
2023-04-23T07:48:10.830Z,100359.16
2023-04-23T07:52:12.850Z,100358.41
2023-04-23T07:56:14.927Z,100365.50
2023-04-23T08:00:17.237Z,100364.00
2023-04-23T08:04:19.656Z,100356.00
2023-04-23T08:08:21.868Z,100358.06
2023-04-23T08:12:23.891Z,100357.94
2023-04-23T08:16:26.284Z,100358.88
2023-04-23T08:20:28.555Z,100351.69
2023-04-23T08:24:30.956Z,100348.94
2023-04-23T08:28:33.091Z,100341.75
2023-04-23T08:32:35.272Z,100338.47
2023-04-23T08:36:37.862Z,100336.69
2023-04-23T08:40:41.411Z,100339.31
2023-04-23T08:44:46.688Z,100332.13
2023-04-23T08:48:52.896Z,100336.50
2023-04-23T08:52:56.632Z,100334.50
2023-04-23T08:56:59.390Z,100333.53
2023-04-23T09:01:02.010Z,100324.56
2023-04-23T09:05:05.143Z,100322.69
2023-04-23T09:09:08.178Z,100320.69
2023-04-23T09:13:12.603Z,100315.78
2023-04-23T09:17:14.607Z,100315.97
2023-04-23T09:21:16.770Z,100308.44
2023-04-23T09:25:20.622Z,100306.97
2023-04-23T09:29:24.240Z,100303.78
2023-04-23T09:33:28.424Z,100303.97
2023-04-23T09:37:31.082Z,100292.78
2023-04-23T09:41:33.248Z,100290.81
2023-04-23T09:45:35.866Z,100283.50
2023-04-23T09:49:48.547Z,100280.88
2023-04-23T09:53:50.851Z,100275.22
2023-04-23T09:57:53.157Z,100269.34
2023-04-23T10:01:55.885Z,100272.75
2023-04-23T10:06:02.488Z,100268.03
2023-04-23T10:10:05.483Z,100255.16
2023-04-23T10:14:09.056Z,100259.66
2023-04-23T10:18:11.333Z,100244.16
2023-04-23T10:22:19.430Z,100246.59
2023-04-23T10:26:24.133Z,100242.78
2023-04-23T10:30:26.935Z,100244.16
2023-04-23T10:34:30.736Z,100241.13
2023-04-23T10:38:32.938Z,100229.94
2023-04-23T10:42:35.814Z,100230.06
2023-04-23T10:46:39.191Z,100225.25
2023-04-23T10:51:00.320Z,100226.53
2023-04-23T10:55:16.353Z,100225.47
2023-04-23T10:59:20.653Z,100214.22
2023-04-23T11:03:31.978Z,100210.56
2023-04-23T11:07:33.999Z,100207.78
2023-04-23T11:11:40.639Z,100206.56
2023-04-23T11:15:42.980Z,100191.75
2023-04-23T11:20:03.849Z,100191.47
2023-04-23T11:24:07.810Z,100192.41
2023-04-23T11:28:10.239Z,100193.44
2023-04-23T11:32:15.582Z,100192.59
2023-04-23T11:36:17.746Z,100180.03
2023-04-23T11:40:20.351Z,100173.19
2023-04-23T11:44:22.463Z,100176.38
2023-04-23T11:48:24.646Z,100164.44
2023-04-23T11:52:27.041Z,100171.31
2023-04-23T11:56:32.421Z,100164.09
2023-04-23T12:00:34.408Z,100157.66
2023-04-23T12:04:37.503Z,100151.31
2023-04-23T12:08:43.171Z,100163.03
2023-04-23T12:12:49.496Z,100157.66
2023-04-23T12:16:54.440Z,100154.28
2023-04-23T12:21:06.711Z,100154.91
2023-04-23T12:25:09.553Z,100138.09
2023-04-23T12:29:13.700Z,100138.44
2023-04-23T12:33:16.176Z,100128.78
2023-04-23T12:37:18.256Z,100130.19
2023-04-23T12:41:20.346Z,100126.97
2023-04-23T12:45:22.404Z,100128.78
2023-04-23T12:49:25.090Z,100108.75
2023-04-23T12:53:27.979Z,100117.06
2023-04-23T12:57:29.934Z,100105.16
2023-04-23T13:01:33.184Z,100103.94
2023-04-23T13:05:35.533Z,100105.53
2023-04-23T13:09:37.745Z,100091.16
2023-04-23T13:13:39.736Z,100085.72
2023-04-23T13:17:41.972Z,100082.31
2023-04-23T13:21:44.793Z,100076.09
2023-04-23T13:25:46.842Z,100070.84
2023-04-23T13:29:48.888Z,100076.34
2023-04-23T13:33:50.922Z,100062.88
2023-04-23T13:37:52.953Z,100059.00
2023-04-23T13:42:08.824Z,100048.09
2023-04-23T13:46:12.072Z,100051.78
2023-04-23T13:50:14.215Z,100045.78
2023-04-23T13:54:16.232Z,100047.13
2023-04-23T13:58:18.422Z,100033.81
2023-04-23T14:02:20.676Z,100032.25
2023-04-23T14:06:23.094Z,100028.25
2023-04-23T14:10:25.175Z,100024.75
2023-04-23T14:14:27.439Z,100020.50
2023-04-23T14:18:29.556Z,100013.13
2023-04-23T14:22:32.035Z,100014.75
2023-04-23T14:26:48.127Z,100007.06
2023-04-23T14:30:54.547Z,100007.16
2023-04-23T14:34:56.592Z,99995.13
2023-04-23T14:39:02.454Z,100005.03
2023-04-23T14:43:15.128Z,100003.94
2023-04-23T14:47:19.234Z,100005.38
2023-04-23T14:51:21.067Z,99999.88
2023-04-23T14:55:23.292Z,99998.72
2023-04-23T14:59:25.609Z,99993.50
2023-04-23T15:03:27.984Z,99991.66
2023-04-23T15:07:31.687Z,99991.94
2023-04-23T15:11:34.031Z,99982.38
2023-04-23T15:15:44.658Z,99979.50
2023-04-23T15:19:47.368Z,99977.66
2023-04-23T15:23:49.539Z,99979.19
2023-04-23T15:27:57.692Z,99969.53
2023-04-23T15:31:59.999Z,99971.06
2023-04-23T15:36:02.111Z,99972.06
2023-04-23T15:40:04.446Z,99959.50
2023-04-23T15:44:08.977Z,99950.25
2023-04-23T15:48:11.028Z,99957.63
2023-04-23T15:52:13.170Z,99962.88
2023-04-23T15:56:15.236Z,99950.38
2023-04-23T16:00:18.521Z,99948.38
2023-04-23T16:04:20.754Z,99941.56
2023-04-23T16:08:22.875Z,99944.31
2023-04-23T16:12:24.965Z,99944.81
2023-04-23T16:16:27.095Z,99947.47
2023-04-23T16:20:29.312Z,99952.44
2023-04-23T16:24:31.385Z,99953.75
2023-04-23T16:28:33.393Z,99946.22
2023-04-23T16:32:36.364Z,99939.22
2023-04-23T16:36:38.805Z,99945.72
2023-04-23T16:40:41.290Z,99942.28
2023-04-23T16:44:43.519Z,99942.78
2023-04-23T16:48:46.881Z,99946.47
2023-04-23T16:52:48.984Z,99934.81
2023-04-23T16:56:51.330Z,99933.50
2023-04-23T17:00:53.229Z,99932.34
2023-04-23T17:04:55.465Z,99934.84
2023-04-23T17:09:00.053Z,99931.94
2023-04-23T17:13:02.281Z,99923.75
2023-04-23T17:17:04.333Z,99930.19
2023-04-23T17:21:06.468Z,99927.25
2023-04-23T17:25:09.101Z,99930.13
2023-04-23T17:29:11.558Z,99928.63
2023-04-23T17:33:14.036Z,99930.81
2023-04-23T17:37:16.282Z,99932.63
2023-04-23T17:41:19.142Z,99930.13
2023-04-23T17:45:21.372Z,99928.09
2023-04-23T17:49:23.499Z,99918.13
2023-04-23T17:53:25.677Z,99925.13
2023-04-23T17:57:27.403Z,99922.56
2023-04-23T18:01:29.582Z,99926.53
2023-04-23T18:05:32.310Z,99925.19
2023-04-23T18:09:34.619Z,99927.44
2023-04-23T18:13:36.769Z,99929.97
2023-04-23T18:17:39.489Z,99927.47
2023-04-23T18:21:41.761Z,99931.59
2023-04-23T18:25:43.809Z,99930.78
2023-04-23T18:29:46.340Z,99928.22
2023-04-23T18:33:53.832Z,99936.72
2023-04-23T18:38:06.656Z,99932.22
2023-04-23T18:42:08.725Z,99926.50
2023-04-23T18:46:11.923Z,99929.16
2023-04-23T18:50:44.123Z,99934.59
2023-04-23T18:54:46.173Z,99931.94
2023-04-23T18:58:48.268Z,99932.34
2023-04-23T19:02:50.447Z,99925.66
2023-04-23T19:06:52.574Z,99927.34
2023-04-23T19:10:55.847Z,99925.69
2023-04-23T19:14:59.844Z,99924.16
2023-04-23T19:19:03.338Z,99928.06
2023-04-23T19:23:05.398Z,99930.28
2023-04-23T19:27:07.550Z,99923.28
2023-04-23T19:31:10.500Z,99924.81
2023-04-23T19:35:12.595Z,99919.91
2023-04-23T19:39:14.665Z,99919.75
2023-04-23T19:43:16.806Z,99925.47
2023-04-23T19:47:19.150Z,99919.41
2023-04-23T19:51:27.800Z,99913.09
2023-04-23T19:55:29.845Z,99911.84
2023-04-23T19:59:32.022Z,99916.53
2023-04-23T20:03:34.869Z,99912.28
2023-04-23T20:07:37.837Z,99921.13
2023-04-23T20:11:39.962Z,99909.22
2023-04-23T20:15:42.194Z,99908.81
2023-04-23T20:19:44.993Z,99906.13
2023-04-23T20:23:47.096Z,99917.72
2023-04-23T20:27:50.609Z,99911.75
2023-04-23T20:31:52.727Z,99903.28
2023-04-23T20:35:56.829Z,99905.38
2023-04-23T20:39:59.040Z,99908.88
2023-04-23T20:44:02.057Z,99900.47
2023-04-23T20:48:04.163Z,99909.50
2023-04-23T20:52:07.403Z,99904.94
2023-04-23T20:56:09.373Z,99908.41
2023-04-23T21:00:14.461Z,99901.38
2023-04-23T21:04:16.726Z,99905.81
2023-04-23T21:08:18.963Z,99901.25
2023-04-23T21:12:21.256Z,99901.34
2023-04-23T21:16:23.383Z,99902.19
2023-04-23T21:20:25.558Z,99894.22
2023-04-23T21:24:27.779Z,99891.94
2023-04-23T21:28:29.990Z,99901.75
2023-04-23T21:32:32.073Z,99901.28
2023-04-23T21:36:34.015Z,99899.75
2023-04-23T21:40:40.246Z,99900.91
2023-04-23T21:44:42.556Z,99903.59
2023-04-23T21:48:44.580Z,99901.75
2023-04-23T21:52:46.689Z,99892.84
2023-04-23T21:56:48.851Z,99924.63
2023-04-23T22:00:51.613Z,99913.53
2023-04-23T22:04:53.713Z,99914.09
2023-04-23T22:08:56.809Z,99895.91
2023-04-23T22:12:58.857Z,99893.59
2023-04-23T22:17:02.566Z,99889.91
2023-04-23T22:21:04.632Z,99897.88
2023-04-23T22:25:08.680Z,99891.75
2023-04-23T22:29:10.777Z,99894.69
2023-04-23T22:33:12.925Z,99892.69
2023-04-23T22:37:15.753Z,99879.41
2023-04-23T22:41:17.751Z,99879.75
2023-04-23T22:45:19.782Z,99883.59
2023-04-23T22:49:21.742Z,99882.94
2023-04-23T22:53:23.821Z,99869.69
2023-04-23T22:57:26.162Z,99881.44
2023-04-23T23:01:28.245Z,99873.66
2023-04-23T23:05:30.308Z,99869.00
2023-04-23T23:09:32.473Z,99865.44
2023-04-23T23:13:34.469Z,99871.97
2023-04-23T23:17:36.610Z,99869.50
2023-04-23T23:21:38.774Z,99867.44
2023-04-23T23:25:41.088Z,99865.13
2023-04-23T23:29:43.485Z,99861.91
2023-04-23T23:33:45.933Z,99852.97
2023-04-23T23:37:47.873Z,99853.56
2023-04-23T23:41:49.981Z,99848.00
2023-04-23T23:45:52.066Z,99847.34
2023-04-23T23:49:54.080Z,99840.22
2023-04-23T23:53:56.094Z,99838.78
2023-04-23T23:57:58.544Z,99830.06
